»·PEaware :: XB-1QD KAVX-KSAN

XB-1QD :: KAVX-KSAN

FLIGHT INFORMATION

Flight Status: Arrived
Operator: Privately registered:
Mexico
More flights under this callsign
Pilot: Camilo Q. (19149)
Aircraft: CESSNA 172 SKYHAWK
(C172)
More flights by this aircraft type
Origin: KAVX Catalina
United States
Destination: KSAN San Diego Intl-Lindbergh
United States
More flights between these airports :: More routes between these airports
Route: +SXC V208 OCN V23 MZB
File this flight plan on PilotEdge
Remarks: TEC route CSTN56 for I-8
Altitude:
(Current/Filed)
5,000ft
Speed:
(Current/Filed)
115kts
Departed: 16-May-18 11:23 AM
Arrived: 16-May-18 12:26 PM
Distance/Time
Traveled:
74nm/1:02
Distance/Time
To Go:
Arrived

Flight Plot

Page will automatically refresh every two minutes.


Map Options




Map Legend


Flown Route
Filed Route
Departure Airport
Arrival Airport
Navaid (VOR, NDB)
Fix

Horizontal Profiles

Position Reports

Time Latitude Longitude Heading Altitude Ground
Speed
16-May-18 11:05 33.403962 -118.415199 149 1606ft 0kts
16-May-18 11:06 33.403962 -118.415199 149 1606ft 0kts
16-May-18 11:07 33.403962 -118.415199 149 1606ft 0kts
16-May-18 11:08 33.403962 -118.415199 149 1606ft 0kts
16-May-18 11:09 33.403962 -118.415199 149 1606ft 0kts
16-May-18 11:10 33.403962 -118.415199 149 1606ft 0kts
16-May-18 11:11 33.403962 -118.415199 149 1606ft 0kts
16-May-18 11:12 33.403962 -118.415199 149 1606ft 0kts
16-May-18 11:13 33.403962 -118.415199 149 1606ft 0kts
16-May-18 11:14 33.403962 -118.415199 149 1606ft 0kts
16-May-18 11:15 33.403962 -118.415199 149 1606ft 0kts
16-May-18 11:16 33.403962 -118.415199 149 1606ft 0kts
16-May-18 11:17 33.403957 -118.415196 148 1606ft 0kts
16-May-18 11:18 33.403969 -118.415071 38 1606ft 3kts
16-May-18 11:19 33.405731 -118.413819 57 1606ft 14kts
16-May-18 11:20 33.407018 -118.411665 58 1606ft 2kts
16-May-18 11:21 33.407120 -118.411471 39 1606ft 0kts
16-May-18 11:22 33.407391 -118.411658 240 1606ft 0kts
16-May-18 11:23 33.400958 -118.422071 230 1848ft 67kts
16-May-18 11:24 33.388068 -118.434110 154 2534ft 62kts
16-May-18 11:25 33.376030 -118.420872 130 3218ft 58kts
16-May-18 11:26 33.367716 -118.406015 97 3888ft 51kts
16-May-18 11:27 33.364826 -118.388442 98 4440ft 60kts
16-May-18 11:28 33.360450 -118.358459 99 4724ft 114kts
16-May-18 11:29 33.355155 -118.319568 98 4889ft 122kts
16-May-18 11:30 33.349882 -118.278484 98 4890ft 125kts
16-May-18 11:31 33.344748 -118.237319 98 4890ft 125kts
16-May-18 11:32 33.339651 -118.195947 98 4890ft 125kts
16-May-18 11:33 33.334601 -118.154798 98 4890ft 125kts
16-May-18 11:34 33.329301 -118.113601 99 4890ft 125kts
16-May-18 11:35 33.323650 -118.072451 99 4899ft 125kts
16-May-18 11:36 33.318069 -118.031288 98 4899ft 125kts
16-May-18 11:37 33.312559 -117.990120 98 4899ft 125kts
16-May-18 11:38 33.308149 -117.948734 97 4899ft 125kts
16-May-18 11:39 33.303386 -117.907456 97 4899ft 125kts
16-May-18 11:40 33.298233 -117.866368 99 4899ft 125kts
16-May-18 11:41 33.292659 -117.825202 99 4899ft 125kts
16-May-18 11:42 33.287093 -117.784534 99 4899ft 125kts
16-May-18 11:43 33.282760 -117.743376 97 4899ft 125kts
16-May-18 11:44 33.278013 -117.701461 98 4899ft 125kts
16-May-18 11:45 33.273012 -117.660167 98 4899ft 125kts
16-May-18 11:46 33.267523 -117.619072 113 4889ft 126kts
16-May-18 11:47 33.242472 -117.590864 144 4899ft 125kts
16-May-18 11:48 33.213925 -117.567152 145 4899ft 125kts
16-May-18 11:49 33.185166 -117.543817 146 4899ft 125kts
16-May-18 11:50 33.156026 -117.520798 147 4899ft 125kts
16-May-18 11:51 33.126691 -117.498420 147 4899ft 125kts
16-May-18 11:52 33.098047 -117.475702 145 4899ft 125kts
16-May-18 11:53 33.068957 -117.451950 145 4899ft 125kts
16-May-18 11:54 33.040206 -117.429089 146 4895ft 119kts
16-May-18 11:55 33.013570 -117.408783 147 4899ft 111kts
16-May-18 11:56 32.988321 -117.387453 143 4899ft 111kts
16-May-18 11:57 32.963040 -117.365948 145 4899ft 111kts
16-May-18 11:58 32.937497 -117.345225 146 4899ft 111kts
16-May-18 11:59 32.911553 -117.325082 147 4899ft 111kts
16-May-18 12:00 32.885387 -117.305653 148 4899ft 111kts
16-May-18 12:01 32.865855 -117.279526 103 4899ft 111kts
16-May-18 12:02 32.858291 -117.243889 103 4881ft 111kts
16-May-18 12:03 32.850804 -117.208590 103 4881ft 111kts
16-May-18 12:04 32.843279 -117.173050 103 4881ft 111kts
16-May-18 12:05 32.835741 -117.137457 103 4881ft 111kts
16-May-18 12:06 32.828352 -117.102593 103 4881ft 111kts
16-May-18 12:07 32.820911 -117.067478 103 4881ft 111kts
16-May-18 12:08 32.813451 -117.032247 103 4881ft 111kts
16-May-18 12:09 32.806001 -116.996976 103 4881ft 111kts
16-May-18 12:10 32.798574 -116.961741 103 4881ft 111kts
16-May-18 12:11 32.791108 -116.926311 103 4881ft 111kts
16-May-18 12:12 32.783654 -116.890909 104 4881ft 111kts
16-May-18 12:13 32.771889 -116.858165 160 4786ft 117kts
16-May-18 12:14 32.739042 -116.862934 189 3910ft 112kts
16-May-18 12:15 32.711970 -116.868252 189 3879ft 93kts
16-May-18 12:16 32.686385 -116.873320 189 3881ft 93kts
16-May-18 12:17 32.673127 -116.899141 249 3681ft 95kts
16-May-18 12:18 32.669555 -116.927553 284 3680ft 89kts
16-May-18 12:19 32.676460 -116.956954 286 3498ft 96kts
16-May-18 12:20 32.683387 -116.985375 286 3380ft 93kts
16-May-18 12:21 32.692030 -117.020052 287 2853ft 138kts
16-May-18 12:22 32.701957 -117.060162 286 2379ft 137kts
16-May-18 12:23 32.711822 -117.100484 285 1759ft 113kts
16-May-18 12:24 32.720166 -117.134659 286 1257ft 106kts
16-May-18 12:25 32.728222 -117.167783 285 582ft 103kts
16-May-18 12:26 32.733555 -117.189568 289 21ft 31kts
16-May-18 12:27 32.734718 -117.190594 69 21ft 5kts
16-May-18 12:28 32.733113 -117.183037 107 21ft 42kts
16-May-18 12:29 32.732462 -117.176997 38 21ft 3kts
16-May-18 12:30 32.732474 -117.176978 58 21ft 0kts
16-May-18 12:31 32.732474 -117.176978 58 21ft 0kts
16-May-18 12:32 32.732474 -117.176978 58 21ft 0kts
16-May-18 12:33 32.732474 -117.176978 58 21ft 0kts

Navigation Log

Ident Type
1. KAVX Airport
2. SXC Navaid
3. AVOLS Fix
4. PACIF Fix
5. HUBRD Fix
6. OCN Navaid
7. HURSI Fix
8. CARIF Fix
9. MZB Navaid
10. KSAN Airport